Terminal Aerodrome Forecast
Issued by NWS

Home | Current Version | Previous Version | Text Only | Print | Product List | Glossary On
Versions: 1 2 3 4 5 6 7 8 9 10 11 12 13 14 15 16
016
FTUS43 KABR 290528
TAFATY
TAF
KATY 290528Z 2906/3006 30008KT P6SM FEW100
     FM291200 31014KT P6SM BKN035
     FM291500 31019G28KT P6SM OVC040
     FM300100 31011KT P6SM BKN060=

USA.gov is the U.S. government's official web portal to all federal, state and local government web resources and services.